EZY846K LFSB-LGSK
Flight info
| Callsign | EZY846K |
|---|---|
| Flight time | 1h 59m |
| Altitude | 35000 |
| Route | ELBEG DCT UNTAD DCT ARLUK DCT TULIK DCT IXONA DCT IPKIS DCT KEMIX DCT SIPAL DCT DOPUT DCT NAPEV DCT RODON DCT PINDO DCT KOGIS DCT VP233 DCT EVIKO |
| Aircraft | A20N/M-SDE2E3FGHIRWXY/LB1 |
Departure
| Time | 2026-05-09 11:14 |
|---|---|
| Airport | EuroAirport Basel–Mulhouse–Freiburg (LFSB) |
Arrival
| Time | 2026-05-09 13:13 |
|---|---|
| Airport | Skiathos Island National Airport (LGSK) |
| Time | Latitude | Longitude | Altitude | Speed | Heading |
|---|---|---|---|---|---|
| 2026-05-09 11:12 | 47.59625 | 7.52869 | 890 ft | 29 kts | 151° |
| 2026-05-09 11:12 | 47.59387 | 7.53032 | 890 ft | 32 kts | 155° |
| 2026-05-09 11:12 | 47.59217 | 7.53154 | 890 ft | 21 kts | 167° |
| 2026-05-09 11:13 | 47.59130 | 7.53109 | 891 ft | 11 kts | 171° |
| 2026-05-09 11:13 | 47.59026 | 7.53157 | 894 ft | 13 kts | 214° |
| 2026-05-09 11:13 | 47.58998 | 7.52954 | 896 ft | 25 kts | 274° |
| 2026-05-09 11:13 | 47.59113 | 7.52835 | 896 ft | 18 kts | 335° |
| 2026-05-09 11:14 | 47.59203 | 7.52772 | 896 ft | 43 kts | 335° |
| 2026-05-09 11:14 | 47.59711 | 7.52420 | 894 ft | 119 kts | 335° |
| 2026-05-09 11:14 | 47.60651 | 7.51776 | 1055 ft | 168 kts | 336° |
| 2026-05-09 11:14 | 47.61747 | 7.51016 | 1761 ft | 174 kts | 335° |
| 2026-05-09 11:15 | 47.62844 | 7.50261 | 2591 ft | 183 kts | 335° |
| 2026-05-09 11:15 | 47.64133 | 7.49422 | 2903 ft | 222 kts | 344° |
| 2026-05-09 11:15 | 47.65762 | 7.49264 | 3350 ft | 250 kts | 14° |
| 2026-05-09 11:15 | 47.67251 | 7.50638 | 4188 ft | 261 kts | 51° |
| 2026-05-09 11:16 | 47.67941 | 7.53129 | 5176 ft | 268 kts | 86° |
| 2026-05-09 11:16 | 47.67581 | 7.55831 | 6205 ft | 271 kts | 116° |
| 2026-05-09 11:16 | 47.66582 | 7.58182 | 7208 ft | 276 kts | 128° |
| 2026-05-09 11:16 | 47.65344 | 7.60385 | 8111 ft | 280 kts | 132° |
| 2026-05-09 11:17 | 47.64067 | 7.62578 | 8937 ft | 284 kts | 131° |
| 2026-05-09 11:17 | 47.62819 | 7.64876 | 9773 ft | 288 kts | 129° |
| 2026-05-09 11:17 | 47.61621 | 7.67310 | 10446 ft | 299 kts | 126° |
| 2026-05-09 11:17 | 47.60422 | 7.69954 | 10760 ft | 320 kts | 124° |
| 2026-05-09 11:18 | 47.59193 | 7.72827 | 11062 ft | 340 kts | 123° |
| 2026-05-09 11:18 | 47.57933 | 7.75870 | 11569 ft | 352 kts | 122° |
| 2026-05-09 11:18 | 47.56650 | 7.78996 | 12270 ft | 358 kts | 122° |
| 2026-05-09 11:18 | 47.55351 | 7.82159 | 13027 ft | 362 kts | 122° |
| 2026-05-09 11:19 | 47.54030 | 7.85361 | 13822 ft | 366 kts | 123° |
| 2026-05-09 11:19 | 47.52691 | 7.88585 | 14497 ft | 370 kts | 123° |
| 2026-05-09 11:19 | 47.51330 | 7.91846 | 15172 ft | 375 kts | 123° |
| 2026-05-09 11:19 | 47.49949 | 7.95138 | 15877 ft | 379 kts | 123° |
| 2026-05-09 11:20 | 47.48551 | 7.98467 | 16561 ft | 383 kts | 123° |
| 2026-05-09 11:20 | 47.47135 | 8.01835 | 17241 ft | 388 kts | 123° |
| 2026-05-09 11:20 | 47.45703 | 8.05238 | 17909 ft | 392 kts | 123° |
| 2026-05-09 11:20 | 47.44255 | 8.08672 | 18542 ft | 396 kts | 123° |
| 2026-05-09 11:21 | 47.42788 | 8.12147 | 19110 ft | 400 kts | 123° |
| 2026-05-09 11:21 | 47.41308 | 8.15648 | 19669 ft | 404 kts | 123° |
| 2026-05-09 11:21 | 47.39813 | 8.19181 | 20243 ft | 408 kts | 123° |
| 2026-05-09 11:21 | 47.38303 | 8.22746 | 20809 ft | 411 kts | 123° |
| 2026-05-09 11:22 | 47.36781 | 8.26334 | 21362 ft | 415 kts | 123° |
| 2026-05-09 11:22 | 47.35240 | 8.29962 | 21905 ft | 419 kts | 123° |
| 2026-05-09 11:22 | 47.33684 | 8.33621 | 22413 ft | 424 kts | 123° |
| 2026-05-09 11:22 | 47.32108 | 8.37319 | 22889 ft | 429 kts | 123° |
| 2026-05-09 11:23 | 47.30512 | 8.41058 | 23429 ft | 432 kts | 123° |
| 2026-05-09 11:23 | 47.28906 | 8.44819 | 23945 ft | 436 kts | 123° |
| 2026-05-09 11:23 | 47.27283 | 8.48615 | 24392 ft | 438 kts | 123° |
| 2026-05-09 11:23 | 47.25658 | 8.52409 | 24882 ft | 440 kts | 123° |
| 2026-05-09 11:24 | 47.24024 | 8.56221 | 25301 ft | 443 kts | 123° |
| 2026-05-09 11:24 | 47.22368 | 8.60077 | 25703 ft | 446 kts | 123° |
| 2026-05-09 11:24 | 47.20703 | 8.63949 | 26109 ft | 449 kts | 123° |
| 2026-05-09 11:24 | 47.19028 | 8.67838 | 26501 ft | 452 kts | 123° |
| 2026-05-09 11:25 | 47.17339 | 8.71752 | 26848 ft | 456 kts | 123° |
| 2026-05-09 11:25 | 47.15631 | 8.75705 | 27181 ft | 459 kts | 123° |
| 2026-05-09 11:25 | 47.13916 | 8.79671 | 27563 ft | 462 kts | 123° |
| 2026-05-09 11:25 | 47.12186 | 8.83665 | 27946 ft | 464 kts | 124° |
| 2026-05-09 11:26 | 47.10445 | 8.87678 | 28288 ft | 467 kts | 124° |
| 2026-05-09 11:26 | 47.08695 | 8.91705 | 28654 ft | 470 kts | 124° |
| 2026-05-09 11:26 | 47.06933 | 8.95756 | 29029 ft | 472 kts | 124° |
| 2026-05-09 11:26 | 47.05184 | 8.99770 | 29404 ft | 474 kts | 124° |
| 2026-05-09 11:27 | 47.03386 | 9.03891 | 29892 ft | 473 kts | 124° |
| 2026-05-09 11:27 | 47.01633 | 9.07905 | 30272 ft | 474 kts | 124° |
| 2026-05-09 11:27 | 46.99849 | 9.11981 | 30487 ft | 478 kts | 124° |
| 2026-05-09 11:27 | 46.98049 | 9.16089 | 30824 ft | 479 kts | 124° |
| 2026-05-09 11:28 | 46.96244 | 9.20200 | 31207 ft | 479 kts | 125° |
| 2026-05-09 11:28 | 46.94441 | 9.24301 | 31545 ft | 480 kts | 125° |
| 2026-05-09 11:28 | 46.92633 | 9.28408 | 31850 ft | 481 kts | 125° |
| 2026-05-09 11:28 | 46.90822 | 9.32517 | 32195 ft | 481 kts | 125° |
| 2026-05-09 11:29 | 46.89012 | 9.36616 | 32522 ft | 481 kts | 125° |
| 2026-05-09 11:29 | 46.87196 | 9.40723 | 32837 ft | 481 kts | 126° |
| 2026-05-09 11:29 | 46.85380 | 9.44824 | 33116 ft | 482 kts | 126° |
| 2026-05-09 11:29 | 46.83551 | 9.48947 | 33395 ft | 483 kts | 126° |
| 2026-05-09 11:30 | 46.81722 | 9.53065 | 33683 ft | 484 kts | 126° |
| 2026-05-09 11:30 | 46.79889 | 9.57185 | 34000 ft | 484 kts | 126° |
| 2026-05-09 11:30 | 46.78649 | 9.59968 | 34164 ft | 485 kts | 126° |
| 2026-05-09 11:30 | 46.76810 | 9.64090 | 34369 ft | 485 kts | 127° |
| 2026-05-09 11:31 | 46.74976 | 9.68190 | 34341 ft | 492 kts | 127° |
| 2026-05-09 11:31 | 46.71210 | 9.76602 | 34496 ft | 497 kts | 127° |
| 2026-05-09 11:31 | 46.69302 | 9.80877 | 34849 ft | 494 kts | 127° |
| 2026-05-09 11:32 | 46.67452 | 9.85005 | 35099 ft | 493 kts | 127° |
| 2026-05-09 11:32 | 46.63701 | 9.93330 | 35156 ft | 491 kts | 127° |
| 2026-05-09 11:33 | 46.59951 | 10.01630 | 35157 ft | 491 kts | 127° |
| 2026-05-09 11:33 | 46.54325 | 10.14031 | 35154 ft | 491 kts | 127° |
| 2026-05-09 11:34 | 46.50557 | 10.22307 | 35132 ft | 493 kts | 128° |
| 2026-05-09 11:34 | 46.46732 | 10.30679 | 35153 ft | 502 kts | 128° |
| 2026-05-09 11:35 | 46.42868 | 10.39117 | 35164 ft | 502 kts | 128° |
| 2026-05-09 11:35 | 46.39002 | 10.47543 | 35157 ft | 502 kts | 128° |
| 2026-05-09 11:36 | 46.35126 | 10.55959 | 35161 ft | 502 kts | 128° |
| 2026-05-09 11:36 | 46.31243 | 10.64364 | 35179 ft | 502 kts | 128° |
| 2026-05-09 11:37 | 46.27354 | 10.72758 | 35186 ft | 502 kts | 128° |
| 2026-05-09 11:37 | 46.23465 | 10.81132 | 35190 ft | 502 kts | 128° |
| 2026-05-09 11:38 | 46.19519 | 10.89437 | 35202 ft | 500 kts | 129° |
| 2026-05-09 11:38 | 46.15499 | 10.97602 | 35191 ft | 498 kts | 130° |
| 2026-05-09 11:39 | 46.11473 | 11.05724 | 35201 ft | 499 kts | 130° |
| 2026-05-09 11:40 | 46.05429 | 11.17937 | 35178 ft | 499 kts | 130° |
| 2026-05-09 11:40 | 46.01391 | 11.26078 | 35157 ft | 500 kts | 130° |
| 2026-05-09 11:41 | 45.97323 | 11.34248 | 35151 ft | 506 kts | 131° |
| 2026-05-09 11:41 | 45.93229 | 11.42445 | 35145 ft | 508 kts | 130° |
| 2026-05-09 11:42 | 45.89089 | 11.50726 | 35132 ft | 506 kts | 131° |
| 2026-05-09 11:42 | 45.84966 | 11.58944 | 35119 ft | 508 kts | 131° |
| 2026-05-09 11:43 | 45.80863 | 11.67095 | 35114 ft | 508 kts | 131° |
| 2026-05-09 11:43 | 45.76723 | 11.75298 | 35115 ft | 508 kts | 131° |
| 2026-05-09 11:44 | 45.72581 | 11.83488 | 35105 ft | 509 kts | 130° |
| 2026-05-09 11:44 | 45.68602 | 11.91924 | 35078 ft | 513 kts | 128° |
| 2026-05-09 11:45 | 45.64732 | 12.00499 | 35073 ft | 514 kts | 127° |
| 2026-05-09 11:45 | 45.60855 | 12.09059 | 35076 ft | 513 kts | 128° |
| 2026-05-09 11:46 | 45.56946 | 12.17591 | 35073 ft | 513 kts | 128° |
| 2026-05-09 11:46 | 45.53016 | 12.26110 | 35074 ft | 515 kts | 128° |
| 2026-05-09 11:47 | 45.49065 | 12.34644 | 35055 ft | 515 kts | 128° |
| 2026-05-09 11:47 | 45.45121 | 12.43141 | 35075 ft | 514 kts | 128° |
| 2026-05-09 11:48 | 45.41174 | 12.51620 | 35082 ft | 514 kts | 128° |
| 2026-05-09 11:48 | 45.37215 | 12.60099 | 35090 ft | 515 kts | 128° |
| 2026-05-09 11:49 | 45.33242 | 12.68581 | 35076 ft | 515 kts | 128° |
| 2026-05-09 11:49 | 45.29255 | 12.77059 | 35083 ft | 515 kts | 130° |
| 2026-05-09 11:50 | 45.24899 | 12.85053 | 35084 ft | 512 kts | 134° |
| 2026-05-09 11:50 | 45.20435 | 12.92911 | 35084 ft | 511 kts | 135° |
| 2026-05-09 11:51 | 45.15949 | 13.00709 | 35084 ft | 510 kts | 135° |
| 2026-05-09 11:51 | 45.11460 | 13.08500 | 35082 ft | 510 kts | 135° |
| 2026-05-09 11:52 | 45.06970 | 13.16287 | 35085 ft | 511 kts | 135° |
| 2026-05-09 11:52 | 45.02474 | 13.24069 | 35082 ft | 512 kts | 135° |
| 2026-05-09 11:53 | 44.97958 | 13.31868 | 35078 ft | 512 kts | 135° |
| 2026-05-09 11:53 | 44.93448 | 13.39637 | 35089 ft | 510 kts | 135° |
| 2026-05-09 11:54 | 44.88942 | 13.47373 | 35086 ft | 511 kts | 135° |
| 2026-05-09 11:54 | 44.84413 | 13.55112 | 35082 ft | 512 kts | 135° |
| 2026-05-09 11:55 | 44.79754 | 13.62669 | 35079 ft | 511 kts | 137° |
| 2026-05-09 11:56 | 44.65614 | 13.84965 | 35081 ft | 511 kts | 137° |
| 2026-05-09 11:57 | 44.60889 | 13.92420 | 35083 ft | 511 kts | 137° |
| 2026-05-09 11:57 | 44.56162 | 13.99862 | 35082 ft | 511 kts | 137° |
| 2026-05-09 11:58 | 44.51425 | 14.07298 | 35079 ft | 511 kts | 137° |
| 2026-05-09 11:58 | 44.46686 | 14.14717 | 35078 ft | 511 kts | 137° |
| 2026-05-09 11:59 | 44.41945 | 14.22120 | 35077 ft | 510 kts | 137° |
| 2026-05-09 11:59 | 44.37201 | 14.29507 | 35077 ft | 510 kts | 137° |
| 2026-05-09 12:00 | 44.32479 | 14.36922 | 35076 ft | 511 kts | 137° |
| 2026-05-09 12:00 | 44.27759 | 14.44369 | 35083 ft | 513 kts | 137° |
| 2026-05-09 12:01 | 44.23029 | 14.51816 | 35081 ft | 512 kts | 137° |
| 2026-05-09 12:01 | 44.18301 | 14.59233 | 35077 ft | 511 kts | 137° |
| 2026-05-09 12:02 | 44.13572 | 14.66624 | 35077 ft | 511 kts | 137° |
| 2026-05-09 12:02 | 44.08832 | 14.74013 | 35079 ft | 511 kts | 137° |
| 2026-05-09 12:03 | 44.04096 | 14.81377 | 35077 ft | 511 kts | 137° |
| 2026-05-09 12:03 | 43.99355 | 14.88729 | 35079 ft | 510 kts | 137° |
| 2026-05-09 12:04 | 43.94615 | 14.96061 | 35077 ft | 510 kts | 137° |
| 2026-05-09 12:04 | 43.89894 | 15.03343 | 35076 ft | 511 kts | 137° |
| 2026-05-09 12:05 | 43.85131 | 15.10673 | 35075 ft | 511 kts | 137° |
| 2026-05-09 12:05 | 43.80366 | 15.17987 | 35077 ft | 511 kts | 137° |
| 2026-05-09 12:06 | 43.75595 | 15.25292 | 35078 ft | 511 kts | 137° |
| 2026-05-09 12:06 | 43.70825 | 15.32576 | 35081 ft | 512 kts | 137° |
| 2026-05-09 12:07 | 43.66037 | 15.39867 | 35073 ft | 512 kts | 137° |
| 2026-05-09 12:07 | 43.61243 | 15.47151 | 35071 ft | 512 kts | 137° |
| 2026-05-09 12:08 | 43.56447 | 15.54419 | 35069 ft | 512 kts | 137° |
| 2026-05-09 12:08 | 43.51645 | 15.61677 | 35083 ft | 512 kts | 137° |
| 2026-05-09 12:09 | 43.46841 | 15.68921 | 35072 ft | 512 kts | 137° |
| 2026-05-09 12:09 | 43.42025 | 15.76161 | 35072 ft | 513 kts | 137° |
| 2026-05-09 12:10 | 43.32645 | 15.90969 | 35066 ft | 519 kts | 124° |
| 2026-05-09 12:10 | 43.31045 | 15.95420 | 35066 ft | 522 kts | 110° |
| 2026-05-09 12:11 | 43.30016 | 16.00198 | 35057 ft | 523 kts | 104° |
| 2026-05-09 12:11 | 43.28439 | 16.09957 | 35058 ft | 524 kts | 100° |
| 2026-05-09 12:12 | 43.27053 | 16.19780 | 35052 ft | 525 kts | 100° |
| 2026-05-09 12:12 | 43.25641 | 16.29597 | 35078 ft | 525 kts | 101° |
| 2026-05-09 12:13 | 43.24178 | 16.39407 | 35079 ft | 525 kts | 101° |
| 2026-05-09 12:13 | 43.22690 | 16.49202 | 35087 ft | 525 kts | 101° |
| 2026-05-09 12:14 | 43.21190 | 16.59001 | 35097 ft | 525 kts | 101° |
| 2026-05-09 12:14 | 43.19939 | 16.67137 | 35098 ft | 525 kts | 101° |
| 2026-05-09 12:15 | 43.18427 | 16.76923 | 35096 ft | 524 kts | 101° |
| 2026-05-09 12:15 | 43.16909 | 16.86693 | 35087 ft | 524 kts | 101° |
| 2026-05-09 12:16 | 43.15386 | 16.96445 | 35053 ft | 524 kts | 101° |
| 2026-05-09 12:16 | 43.13599 | 17.06103 | 35047 ft | 524 kts | 112° |
| 2026-05-09 12:17 | 43.10143 | 17.14833 | 35058 ft | 522 kts | 123° |
| 2026-05-09 12:17 | 43.06200 | 17.23163 | 35052 ft | 521 kts | 126° |
| 2026-05-09 12:18 | 43.02167 | 17.31394 | 35059 ft | 521 kts | 126° |
| 2026-05-09 12:18 | 42.98142 | 17.39639 | 35052 ft | 521 kts | 126° |
| 2026-05-09 12:19 | 42.94159 | 17.47837 | 35059 ft | 522 kts | 125° |
| 2026-05-09 12:19 | 42.90148 | 17.56098 | 35057 ft | 522 kts | 125° |
| 2026-05-09 12:20 | 42.86130 | 17.64354 | 35047 ft | 522 kts | 125° |
| 2026-05-09 12:20 | 42.82106 | 17.72595 | 35051 ft | 522 kts | 125° |
| 2026-05-09 12:21 | 42.78075 | 17.80822 | 35057 ft | 522 kts | 125° |
| 2026-05-09 12:21 | 42.73993 | 17.89003 | 35059 ft | 522 kts | 130° |
| 2026-05-09 12:22 | 42.69337 | 17.96533 | 35067 ft | 520 kts | 133° |
| 2026-05-09 12:22 | 42.64546 | 18.03915 | 35073 ft | 520 kts | 134° |
| 2026-05-09 12:23 | 42.59730 | 18.11244 | 35076 ft | 520 kts | 134° |
| 2026-05-09 12:23 | 42.54916 | 18.18570 | 35068 ft | 520 kts | 134° |
| 2026-05-09 12:24 | 42.50112 | 18.25883 | 35076 ft | 519 kts | 134° |
| 2026-05-09 12:24 | 42.45309 | 18.33183 | 35074 ft | 519 kts | 134° |
| 2026-05-09 12:25 | 42.40498 | 18.40476 | 35072 ft | 519 kts | 135° |
| 2026-05-09 12:25 | 42.35680 | 18.47762 | 35073 ft | 520 kts | 134° |
| 2026-05-09 12:26 | 42.30874 | 18.55010 | 35073 ft | 521 kts | 134° |
| 2026-05-09 12:26 | 42.26034 | 18.62294 | 35074 ft | 521 kts | 134° |
| 2026-05-09 12:27 | 42.21150 | 18.69526 | 35069 ft | 519 kts | 140° |
| 2026-05-09 12:27 | 42.18374 | 18.72579 | 35075 ft | 512 kts | 152° |
| 2026-05-09 12:27 | 42.15292 | 18.74858 | 35077 ft | 503 kts | 161° |
| 2026-05-09 12:28 | 42.08851 | 18.78467 | 35080 ft | 501 kts | 166° |
| 2026-05-09 12:28 | 42.02305 | 18.81727 | 35069 ft | 502 kts | 166° |
| 2026-05-09 12:29 | 41.95753 | 18.84963 | 35074 ft | 502 kts | 166° |
| 2026-05-09 12:29 | 41.89210 | 18.88240 | 35073 ft | 502 kts | 166° |
| 2026-05-09 12:30 | 41.82672 | 18.91537 | 35073 ft | 502 kts | 166° |
| 2026-05-09 12:30 | 41.72884 | 18.96468 | 35075 ft | 500 kts | 166° |
| 2026-05-09 12:31 | 41.63102 | 19.01374 | 35072 ft | 500 kts | 166° |
| 2026-05-09 12:32 | 41.56581 | 19.04637 | 35071 ft | 499 kts | 166° |
| 2026-05-09 12:32 | 41.50101 | 19.07981 | 35071 ft | 503 kts | 160° |
| 2026-05-09 12:32 | 41.47055 | 19.10336 | 35074 ft | 511 kts | 149° |
| 2026-05-09 12:33 | 41.44356 | 19.13468 | 35082 ft | 518 kts | 135° |
| 2026-05-09 12:33 | 41.39945 | 19.21117 | 35076 ft | 524 kts | 126° |
| 2026-05-09 12:34 | 41.35859 | 19.29171 | 35063 ft | 525 kts | 125° |
| 2026-05-09 12:34 | 41.31805 | 19.37244 | 35066 ft | 524 kts | 125° |
| 2026-05-09 12:35 | 41.27712 | 19.45257 | 35072 ft | 524 kts | 126° |
| 2026-05-09 12:35 | 41.23606 | 19.53200 | 35065 ft | 525 kts | 126° |
| 2026-05-09 12:36 | 41.19452 | 19.61196 | 35063 ft | 526 kts | 126° |
| 2026-05-09 12:36 | 41.15290 | 19.69190 | 35068 ft | 526 kts | 126° |
| 2026-05-09 12:37 | 41.11131 | 19.77163 | 35065 ft | 526 kts | 126° |
| 2026-05-09 12:37 | 41.06960 | 19.85137 | 35066 ft | 527 kts | 126° |
| 2026-05-09 12:38 | 41.02771 | 19.93128 | 35061 ft | 528 kts | 126° |
| 2026-05-09 12:38 | 40.98576 | 20.01108 | 35070 ft | 528 kts | 126° |
| 2026-05-09 12:39 | 40.94377 | 20.09074 | 35073 ft | 528 kts | 126° |
| 2026-05-09 12:39 | 40.90171 | 20.17033 | 35078 ft | 528 kts | 126° |
| 2026-05-09 12:40 | 40.85962 | 20.24978 | 35071 ft | 527 kts | 126° |
| 2026-05-09 12:40 | 40.81753 | 20.32901 | 35073 ft | 527 kts | 126° |
| 2026-05-09 12:41 | 40.77531 | 20.40831 | 35068 ft | 528 kts | 126° |
| 2026-05-09 12:41 | 40.73307 | 20.48744 | 35075 ft | 529 kts | 126° |
| 2026-05-09 12:42 | 40.69062 | 20.56678 | 35062 ft | 530 kts | 126° |
| 2026-05-09 12:42 | 40.64815 | 20.64599 | 35054 ft | 528 kts | 126° |
| 2026-05-09 12:43 | 40.60569 | 20.72492 | 35049 ft | 528 kts | 126° |
| 2026-05-09 12:43 | 40.56314 | 20.80375 | 34939 ft | 526 kts | 126° |
| 2026-05-09 12:43 | 40.54199 | 20.84287 | 34485 ft | 524 kts | 126° |
| 2026-05-09 12:44 | 40.52109 | 20.88149 | 33878 ft | 524 kts | 126° |
| 2026-05-09 12:44 | 40.49974 | 20.92091 | 33223 ft | 524 kts | 126° |
| 2026-05-09 12:44 | 40.48064 | 20.96144 | 32709 ft | 520 kts | 116° |
| 2026-05-09 12:44 | 40.46461 | 21.00399 | 32179 ft | 517 kts | 114° |
| 2026-05-09 12:45 | 40.44942 | 21.04653 | 31634 ft | 515 kts | 113° |
| 2026-05-09 12:45 | 40.43472 | 21.08914 | 31043 ft | 513 kts | 112° |
| 2026-05-09 12:45 | 40.42020 | 21.13190 | 30168 ft | 520 kts | 112° |
| 2026-05-09 12:45 | 40.40560 | 21.17512 | 29535 ft | 518 kts | 113° |
| 2026-05-09 12:46 | 40.39106 | 21.21798 | 29224 ft | 508 kts | 113° |
| 2026-05-09 12:46 | 40.37671 | 21.26009 | 28668 ft | 503 kts | 113° |
| 2026-05-09 12:46 | 40.36246 | 21.30171 | 28113 ft | 499 kts | 114° |
| 2026-05-09 12:46 | 40.34823 | 21.34307 | 27590 ft | 495 kts | 114° |
| 2026-05-09 12:47 | 40.33412 | 21.38399 | 27084 ft | 490 kts | 114° |
| 2026-05-09 12:47 | 40.32011 | 21.42452 | 26587 ft | 486 kts | 114° |
| 2026-05-09 12:47 | 40.30621 | 21.46467 | 26105 ft | 481 kts | 114° |
| 2026-05-09 12:47 | 40.29246 | 21.50433 | 25637 ft | 477 kts | 114° |
| 2026-05-09 12:48 | 40.27878 | 21.54374 | 25204 ft | 472 kts | 114° |
| 2026-05-09 12:48 | 40.26525 | 21.58265 | 24776 ft | 468 kts | 114° |
| 2026-05-09 12:48 | 40.25182 | 21.62128 | 24286 ft | 464 kts | 114° |
| 2026-05-09 12:48 | 40.23855 | 21.65938 | 23861 ft | 459 kts | 114° |
| 2026-05-09 12:49 | 40.22550 | 21.69679 | 23354 ft | 454 kts | 114° |
| 2026-05-09 12:49 | 40.21226 | 21.73469 | 22791 ft | 451 kts | 114° |
| 2026-05-09 12:49 | 40.19942 | 21.77139 | 22229 ft | 448 kts | 114° |
| 2026-05-09 12:49 | 40.18649 | 21.80830 | 21681 ft | 444 kts | 114° |
| 2026-05-09 12:50 | 40.17369 | 21.84482 | 21194 ft | 439 kts | 114° |
| 2026-05-09 12:50 | 40.16097 | 21.88104 | 20557 ft | 438 kts | 114° |
| 2026-05-09 12:50 | 40.14828 | 21.91715 | 19977 ft | 436 kts | 115° |
| 2026-05-09 12:50 | 40.13565 | 21.95303 | 19453 ft | 433 kts | 115° |
| 2026-05-09 12:51 | 40.12082 | 21.98692 | 18935 ft | 428 kts | 129° |
| 2026-05-09 12:51 | 40.10058 | 22.01511 | 18391 ft | 424 kts | 138° |
| 2026-05-09 12:51 | 40.07862 | 22.04041 | 17817 ft | 419 kts | 142° |
| 2026-05-09 12:51 | 40.05586 | 22.06387 | 17222 ft | 414 kts | 144° |
| 2026-05-09 12:52 | 40.03291 | 22.08625 | 16692 ft | 409 kts | 146° |
| 2026-05-09 12:52 | 40.01011 | 22.10812 | 16143 ft | 405 kts | 146° |
| 2026-05-09 12:52 | 39.98748 | 22.12986 | 15610 ft | 402 kts | 146° |
| 2026-05-09 12:52 | 39.96518 | 22.15149 | 15130 ft | 397 kts | 146° |
| 2026-05-09 12:53 | 39.94325 | 22.17295 | 14639 ft | 392 kts | 145° |
| 2026-05-09 12:53 | 39.92159 | 22.19429 | 14133 ft | 389 kts | 145° |
| 2026-05-09 12:53 | 39.90014 | 22.21550 | 13609 ft | 385 kts | 145° |
| 2026-05-09 12:53 | 39.87891 | 22.23653 | 13052 ft | 381 kts | 145° |
| 2026-05-09 12:54 | 39.85791 | 22.25732 | 12532 ft | 378 kts | 145° |
| 2026-05-09 12:54 | 39.83718 | 22.27783 | 12001 ft | 374 kts | 145° |
| 2026-05-09 12:54 | 39.81654 | 22.29823 | 11480 ft | 370 kts | 145° |
| 2026-05-09 12:54 | 39.79608 | 22.31844 | 10969 ft | 366 kts | 145° |
| 2026-05-09 12:55 | 39.77593 | 22.33833 | 10448 ft | 362 kts | 145° |
| 2026-05-09 12:55 | 39.75597 | 22.35801 | 9967 ft | 358 kts | 145° |
| 2026-05-09 12:55 | 39.73622 | 22.37745 | 9393 ft | 354 kts | 145° |
| 2026-05-09 12:55 | 39.71673 | 22.39662 | 8783 ft | 351 kts | 145° |
| 2026-05-09 12:56 | 39.69739 | 22.41563 | 8200 ft | 348 kts | 144° |
| 2026-05-09 12:56 | 39.67806 | 22.43462 | 7636 ft | 345 kts | 144° |
| 2026-05-09 12:56 | 39.65902 | 22.45331 | 7176 ft | 341 kts | 144° |
| 2026-05-09 12:56 | 39.64013 | 22.47185 | 7013 ft | 341 kts | 144° |
| 2026-05-09 12:57 | 39.62117 | 22.49044 | 6992 ft | 342 kts | 144° |
| 2026-05-09 12:57 | 39.60228 | 22.50894 | 6987 ft | 342 kts | 144° |
| 2026-05-09 12:57 | 39.58375 | 22.52843 | 6982 ft | 343 kts | 139° |
| 2026-05-09 12:57 | 39.56769 | 22.55129 | 6985 ft | 344 kts | 128° |
| 2026-05-09 12:58 | 39.55421 | 22.57702 | 6989 ft | 345 kts | 123° |
| 2026-05-09 12:58 | 39.54190 | 22.60376 | 6997 ft | 345 kts | 121° |
| 2026-05-09 12:58 | 39.53030 | 22.63098 | 6997 ft | 345 kts | 119° |
| 2026-05-09 12:58 | 39.51899 | 22.65850 | 6996 ft | 346 kts | 118° |
| 2026-05-09 12:59 | 39.50776 | 22.68605 | 6996 ft | 346 kts | 119° |
| 2026-05-09 12:59 | 39.49647 | 22.71360 | 6993 ft | 346 kts | 119° |
| 2026-05-09 12:59 | 39.48898 | 22.73174 | 7008 ft | 346 kts | 119° |
| 2026-05-09 12:59 | 39.47757 | 22.75918 | 7005 ft | 346 kts | 120° |
| 2026-05-09 13:00 | 39.46610 | 22.78657 | 6994 ft | 346 kts | 120° |
| 2026-05-09 13:00 | 39.45461 | 22.81388 | 7006 ft | 346 kts | 120° |
| 2026-05-09 13:00 | 39.44303 | 22.84130 | 7008 ft | 347 kts | 120° |
| 2026-05-09 13:00 | 39.43145 | 22.86868 | 7013 ft | 347 kts | 120° |
| 2026-05-09 13:01 | 39.41986 | 22.89604 | 7016 ft | 347 kts | 120° |
| 2026-05-09 13:01 | 39.40827 | 22.92337 | 7011 ft | 346 kts | 120° |
| 2026-05-09 13:01 | 39.39668 | 22.95063 | 7016 ft | 346 kts | 120° |
| 2026-05-09 13:01 | 39.38511 | 22.97793 | 7015 ft | 346 kts | 120° |
| 2026-05-09 13:02 | 39.37355 | 23.00520 | 7006 ft | 346 kts | 120° |
| 2026-05-09 13:02 | 39.36200 | 23.03245 | 7000 ft | 346 kts | 120° |
| 2026-05-09 13:02 | 39.35043 | 23.05971 | 7011 ft | 346 kts | 120° |
| 2026-05-09 13:02 | 39.33882 | 23.08701 | 6975 ft | 345 kts | 120° |
| 2026-05-09 13:03 | 39.32730 | 23.11408 | 6504 ft | 343 kts | 120° |
| 2026-05-09 13:03 | 39.31587 | 23.14093 | 5982 ft | 339 kts | 120° |
| 2026-05-09 13:03 | 39.30458 | 23.16742 | 5425 ft | 336 kts | 120° |
| 2026-05-09 13:03 | 39.29336 | 23.19375 | 5094 ft | 334 kts | 120° |
| 2026-05-09 13:04 | 39.28220 | 23.21990 | 5007 ft | 334 kts | 120° |
| 2026-05-09 13:04 | 39.27094 | 23.24627 | 5016 ft | 335 kts | 120° |
| 2026-05-09 13:04 | 39.25976 | 23.27244 | 5017 ft | 325 kts | 120° |
| 2026-05-09 13:04 | 39.24924 | 23.29708 | 5022 ft | 303 kts | 120° |
| 2026-05-09 13:05 | 39.23949 | 23.31987 | 4947 ft | 288 kts | 121° |
| 2026-05-09 13:05 | 39.22991 | 23.34223 | 4802 ft | 276 kts | 120° |
| 2026-05-09 13:05 | 39.22080 | 23.36342 | 4658 ft | 264 kts | 120° |
| 2026-05-09 13:05 | 39.21208 | 23.38369 | 4483 ft | 256 kts | 120° |
| 2026-05-09 13:06 | 39.20346 | 23.40371 | 4073 ft | 258 kts | 121° |
| 2026-05-09 13:06 | 39.19552 | 23.42474 | 3569 ft | 264 kts | 112° |
| 2026-05-09 13:06 | 39.19007 | 23.44751 | 3067 ft | 268 kts | 102° |
| 2026-05-09 13:06 | 39.18741 | 23.47154 | 2556 ft | 273 kts | 96° |
| 2026-05-09 13:07 | 39.18584 | 23.49589 | 2132 ft | 272 kts | 94° |
| 2026-05-09 13:07 | 39.18452 | 23.51983 | 1997 ft | 261 kts | 94° |
| 2026-05-09 13:07 | 39.18332 | 23.54230 | 1993 ft | 242 kts | 93° |
| 2026-05-09 13:07 | 39.18222 | 23.56320 | 1994 ft | 225 kts | 94° |
| 2026-05-09 13:08 | 39.18114 | 23.58259 | 1992 ft | 209 kts | 96° |
| 2026-05-09 13:08 | 39.17588 | 23.59880 | 2034 ft | 187 kts | 136° |
| 2026-05-09 13:08 | 39.16492 | 23.60434 | 2079 ft | 164 kts | 174° |
| 2026-05-09 13:08 | 39.15352 | 23.60417 | 2017 ft | 163 kts | 192° |
| 2026-05-09 13:09 | 39.14360 | 23.59880 | 1996 ft | 150 kts | 210° |
| 2026-05-09 13:09 | 39.13501 | 23.59136 | 1998 ft | 149 kts | 217° |
| 2026-05-09 13:09 | 39.12715 | 23.58272 | 1989 ft | 150 kts | 227° |
| 2026-05-09 13:09 | 39.12067 | 23.57213 | 1994 ft | 150 kts | 234° |
| 2026-05-09 13:10 | 39.11467 | 23.56114 | 1997 ft | 150 kts | 235° |
| 2026-05-09 13:10 | 39.10876 | 23.55015 | 1993 ft | 149 kts | 237° |
| 2026-05-09 13:10 | 39.10523 | 23.53796 | 1998 ft | 149 kts | 259° |
| 2026-05-09 13:10 | 39.10481 | 23.52465 | 1966 ft | 149 kts | 275° |
| 2026-05-09 13:11 | 39.10644 | 23.51121 | 1569 ft | 153 kts | 288° |
| 2026-05-09 13:11 | 39.11077 | 23.49947 | 1428 ft | 140 kts | 302° |
| 2026-05-09 13:11 | 39.11649 | 23.48926 | 1057 ft | 141 kts | 315° |
| 2026-05-09 13:11 | 39.12385 | 23.48114 | 990 ft | 138 kts | 333° |
| 2026-05-09 13:12 | 39.13286 | 23.48050 | 978 ft | 132 kts | 18° |
| 2026-05-09 13:12 | 39.14111 | 23.48573 | 857 ft | 132 kts | 30° |
| 2026-05-09 13:12 | 39.14911 | 23.49132 | 632 ft | 130 kts | 20° |
| 2026-05-09 13:12 | 39.15768 | 23.49477 | 388 ft | 129 kts | 19° |
| 2026-05-09 13:13 | 39.16612 | 23.49876 | 147 ft | 128 kts | 17° |
| 2026-05-09 13:13 | 39.17438 | 23.50235 | 44 ft | 122 kts | 19° |
| 2026-05-09 13:13 | 39.18116 | 23.50539 | 51 ft | 75 kts | 19° |
| 2026-05-09 13:13 | 39.18394 | 23.50663 | 57 ft | 15 kts | 19° |
| 2026-05-09 13:14 | 39.18463 | 23.50699 | 66 ft | 4 kts | 47° |
| 2026-05-09 13:14 | 39.18477 | 23.50715 | 66 ft | 5 kts | 40° |
| 2026-05-09 13:16 | 39.17918 | 23.50225 | 55 ft | 0 kts | 285° |